Mazonia, IL

10:26 AM CST on January 22, 2017 (GMT -0600)
MUP791 | | Change Station

Elev 573 ft 41.21 °N, 88.28 °W | Updated 1 day ago

Fog
Fog
49.0 °F
Feels Like 46 °F
N
8.0
Wind Variable Wind from ESE
Gusts 11.0 mph

Today
High -- | Low -- °F
--% Chance of Precip.
Yesterday
High -- | Low -- °F
Precip. -- in
Pressure 29.65 in
Visibility 0.5 miles
Clouds Overcast 200 ft
Windchill 46 °F
Dew Point Not available.
Humidity Not available.
Rainfall in
Snow Depth Not available.
7:12 AM 4:57 PM
Waning Crescent, 25% visible
METAR KC09 221615Z AUTO 00000KT 1/2SM FG OVC002 04/04 A2965 RMK AO2 T00380036
Pressure 29.65 in
Visibility 0.5 miles
Clouds Overcast 200 ft
Windchill 46 °F
Dew Point Not available.
Humidity Not available.
Rainfall in
Snow Depth Not available.
7:12 AM 4:57 PM
Waning Crescent, 25% visible
METAR KC09 221615Z AUTO 00000KT 1/2SM FG OVC002 04/04 A2965 RMK AO2 T00380036

Get Your Daily Forecast Email!

Thanks for signing up!

Be on the lookout for a verification email in your inbox.

You'll start receiving the daily forecast at 8 AM.

×

10-Day Weather Forecast

Almanac

Astronomy

Jan. 22, 2017 Rise Set
Actual Time
Civil Twilight
Nautical Twilight
Astronomical Twilight
Moon
Length of Visible Light
Length of Day
Tomorrow will be .
, % of the Moon is Illuminated

Today's Extremes

State Highs State Lows

Community

WunderPhotos

Upload Photos

1,962,540 photos uploaded!

WunderBlog® & News

Nearby

Air Quality

  Air Quality AQ Index Pollutant
Not available.

Snow Depth

Station Depth Elevation

Earthquake Activity

City Distance Mag. Time & Date
Minimum magnitude displayed is 2.5.

Coastal Water Temperatures

Place Temperature

Stations

Nearby Weather Stations

Station Location Temp. Windchill Dew Point Humidity Wind Precip. Elev Updated Type
                   

Watches & Warnings

Flood Advisory
Issued: 9:42 PM CST Jan. 21, 2017 – National Weather Service

The Flood Advisory continues for
the Illinois River at Morris
* until Sunday evening.
* At 845 PM Saturday the stage was 14.0 feet.
* Action stage is 13.0 feet.
* Flood stage is 16.0 feet.
* Forecast... the river will continue to fall.


Lat... Lon 4143 8827 4134 8860 4135 8868 4127 8868
      4127 8860 4135 8826




Dense Fog Advisory
Issued: 6:14 AM CST Jan. 22, 2017 – National Weather Service

... Dense fog advisory remains in effect until noon CST today...

* visibility... less than one quarter mile... at times less than
one hundred yards.

* Other impact... temperatures at or just below freezing could
cause some slick spots on roadways.

Precautionary/preparedness actions...

A dense fog advisory means visibilities will frequently be
reduced to less than one quarter mile. If driving... slow down...
use your headlights... and leave plenty of distance ahead of you.